sensor_id;sensor_type;location;lat;lon;timestamp;P1;durP1;ratioP1;P2;durP2;ratioP2
54937;SDS011;52756;52.826;6.214;2023-05-19T00:00:55;10.93;;;5.03;;
54937;SDS011;52756;52.826;6.214;2023-05-19T00:03:22;10.07;;;4.63;;
54937;SDS011;52756;52.826;6.214;2023-05-19T00:05:47;8.73;;;3.47;;
54937;SDS011;52756;52.826;6.214;2023-05-19T00:08:17;8.55;;;3.63;;
54937;SDS011;52756;52.826;6.214;2023-05-19T00:10:44;8.07;;;3.40;;
54937;SDS011;52756;52.826;6.214;2023-05-19T00:13:10;7.70;;;3.35;;
54937;SDS011;52756;52.826;6.214;2023-05-19T00:15:37;8.48;;;3.20;;
54937;SDS011;52756;52.826;6.214;2023-05-19T00:18:02;8.55;;;3.70;;
54937;SDS011;52756;52.826;6.214;2023-05-19T00:20:28;8.52;;;3.20;;
54937;SDS011;52756;52.826;6.214;2023-05-19T00:22:54;7.75;;;3.30;;
54937;SDS011;52756;52.826;6.214;2023-05-19T00:25:20;7.93;;;2.95;;
54937;SDS011;52756;52.826;6.214;2023-05-19T00:27:45;10.68;;;3.55;;
54937;SDS011;52756;52.826;6.214;2023-05-19T00:30:11;6.45;;;2.95;;
54937;SDS011;52756;52.826;6.214;2023-05-19T00:32:37;10.82;;;4.07;;
54937;SDS011;52756;52.826;6.214;2023-05-19T00:35:03;7.10;;;3.20;;
54937;SDS011;52756;52.826;6.214;2023-05-19T00:37:29;7.10;;;3.83;;
54937;SDS011;52756;52.826;6.214;2023-05-19T00:39:55;10.77;;;4.28;;
54937;SDS011;52756;52.826;6.214;2023-05-19T00:42:21;12.10;;;4.13;;
54937;SDS011;52756;52.826;6.214;2023-05-19T00:44:47;8.13;;;3.60;;
54937;SDS011;52756;52.826;6.214;2023-05-19T00:47:12;7.75;;;3.40;;
54937;SDS011;52756;52.826;6.214;2023-05-19T00:49:38;9.18;;;4.13;;
54937;SDS011;52756;52.826;6.214;2023-05-19T00:52:05;7.70;;;3.67;;
54937;SDS011;52756;52.826;6.214;2023-05-19T00:54:32;8.48;;;3.60;;
54937;SDS011;52756;52.826;6.214;2023-05-19T00:56:58;8.30;;;3.75;;
54937;SDS011;52756;52.826;6.214;2023-05-19T00:59:24;9.40;;;4.30;;
54937;SDS011;52756;52.826;6.214;2023-05-19T01:01:51;7.75;;;3.28;;
54937;SDS011;52756;52.826;6.214;2023-05-19T01:04:17;6.97;;;3.65;;
54937;SDS011;52756;52.826;6.214;2023-05-19T01:06:45;7.55;;;3.58;;
54937;SDS011;52756;52.826;6.214;2023-05-19T01:09:14;6.60;;;4.20;;
54937;SDS011;52756;52.826;6.214;2023-05-19T01:11:41;9.18;;;4.20;;
54937;SDS011;52756;52.826;6.214;2023-05-19T01:14:06;8.30;;;3.80;;
54937;SDS011;52756;52.826;6.214;2023-05-19T01:16:37;9.85;;;4.55;;
54937;SDS011;52756;52.826;6.214;2023-05-19T01:24:29;8.88;;;4.25;;
54937;SDS011;52756;52.826;6.214;2023-05-19T01:30:49;11.30;;;4.65;;
54937;SDS011;52756;52.826;6.214;2023-05-19T01:33:09;10.05;;;3.80;;
54937;SDS011;52756;52.826;6.214;2023-05-19T01:35:40;12.23;;;4.90;;
54937;SDS011;52756;52.826;6.214;2023-05-19T01:38:08;10.48;;;4.32;;
54937;SDS011;52756;52.826;6.214;2023-05-19T01:40:36;9.23;;;3.83;;
54937;SDS011;52756;52.826;6.214;2023-05-19T01:43:03;14.55;;;4.97;;
54937;SDS011;52756;52.826;6.214;2023-05-19T01:45:31;6.03;;;3.92;;
54937;SDS011;52756;52.826;6.214;2023-05-19T01:47:59;12.35;;;3.92;;
54937;SDS011;52756;52.826;6.214;2023-05-19T01:50:26;8.77;;;3.63;;
54937;SDS011;52756;52.826;6.214;2023-05-19T01:52:53;6.18;;;3.63;;
54937;SDS011;52756;52.826;6.214;2023-05-19T01:55:19;8.95;;;4.07;;
54937;SDS011;52756;52.826;6.214;2023-05-19T02:03:08;9.35;;;4.00;;
54937;SDS011;52756;52.826;6.214;2023-05-19T02:08:56;8.32;;;3.83;;
54937;SDS011;52756;52.826;6.214;2023-05-19T02:11:46;7.18;;;3.25;;
54937;SDS011;52756;52.826;6.214;2023-05-19T02:16:53;8.23;;;3.78;;
54937;SDS011;52756;52.826;6.214;2023-05-19T02:19:22;9.85;;;3.72;;
54937;SDS011;52756;52.826;6.214;2023-05-19T02:21:50;6.55;;;3.70;;
54937;SDS011;52756;52.826;6.214;2023-05-19T02:24:16;10.00;;;4.00;;
54937;SDS011;52756;52.826;6.214;2023-05-19T02:26:44;6.95;;;4.40;;
54937;SDS011;52756;52.826;6.214;2023-05-19T02:29:10;8.43;;;3.85;;
54937;SDS011;52756;52.826;6.214;2023-05-19T02:31:36;7.57;;;4.00;;
54937;SDS011;52756;52.826;6.214;2023-05-19T02:34:01;7.35;;;3.65;;
54937;SDS011;52756;52.826;6.214;2023-05-19T02:36:30;7.03;;;4.15;;
54937;SDS011;52756;52.826;6.214;2023-05-19T02:39:01;7.60;;;3.88;;
54937;SDS011;52756;52.826;6.214;2023-05-19T02:41:28;9.43;;;4.38;;
54937;SDS011;52756;52.826;6.214;2023-05-19T02:43:54;8.05;;;4.07;;
54937;SDS011;52756;52.826;6.214;2023-05-19T02:46:19;9.73;;;4.22;;
54937;SDS011;52756;52.826;6.214;2023-05-19T02:48:45;7.35;;;4.47;;
54937;SDS011;52756;52.826;6.214;2023-05-19T02:51:11;7.60;;;3.78;;
54937;SDS011;52756;52.826;6.214;2023-05-19T02:53:37;12.82;;;4.78;;
54937;SDS011;52756;52.826;6.214;2023-05-19T02:56:02;6.82;;;4.28;;
54937;SDS011;52756;52.826;6.214;2023-05-19T02:58:28;10.52;;;4.82;;
54937;SDS011;52756;52.826;6.214;2023-05-19T03:00:54;11.02;;;4.43;;
54937;SDS011;52756;52.826;6.214;2023-05-19T03:03:20;10.07;;;4.07;;
54937;SDS011;52756;52.826;6.214;2023-05-19T03:05:46;10.52;;;4.90;;
54937;SDS011;52756;52.826;6.214;2023-05-19T03:08:12;11.32;;;4.55;;
54937;SDS011;52756;52.826;6.214;2023-05-19T03:10:38;8.77;;;4.60;;
54937;SDS011;52756;52.826;6.214;2023-05-19T03:13:03;8.57;;;4.93;;
54937;SDS011;52756;52.826;6.214;2023-05-19T03:15:30;11.65;;;4.80;;
54937;SDS011;52756;52.826;6.214;2023-05-19T03:17:56;7.90;;;4.03;;
54937;SDS011;52756;52.826;6.214;2023-05-19T03:20:22;12.10;;;4.80;;
54937;SDS011;52756;52.826;6.214;2023-05-19T03:22:48;7.35;;;4.00;;
54937;SDS011;52756;52.826;6.214;2023-05-19T03:25:14;9.20;;;4.35;;
54937;SDS011;52756;52.826;6.214;2023-05-19T03:27:41;8.25;;;4.40;;
54937;SDS011;52756;52.826;6.214;2023-05-19T03:30:07;9.43;;;4.40;;
54937;SDS011;52756;52.826;6.214;2023-05-19T03:32:33;9.32;;;3.92;;
54937;SDS011;52756;52.826;6.214;2023-05-19T03:35:02;8.85;;;4.32;;
54937;SDS011;52756;52.826;6.214;2023-05-19T03:37:29;11.52;;;4.55;;
54937;SDS011;52756;52.826;6.214;2023-05-19T03:39:55;9.90;;;4.10;;
54937;SDS011;52756;52.826;6.214;2023-05-19T03:42:21;7.72;;;3.95;;
54937;SDS011;52756;52.826;6.214;2023-05-19T03:44:47;7.53;;;4.30;;
54937;SDS011;52756;52.826;6.214;2023-05-19T03:47:12;10.75;;;4.80;;
54937;SDS011;52756;52.826;6.214;2023-05-19T03:49:38;9.70;;;4.85;;
54937;SDS011;52756;52.826;6.214;2023-05-19T03:52:04;8.80;;;4.65;;
54937;SDS011;52756;52.826;6.214;2023-05-19T03:54:30;5.65;;;3.90;;
54937;SDS011;52756;52.826;6.214;2023-05-19T03:56:56;6.90;;;3.78;;
54937;SDS011;52756;52.826;6.214;2023-05-19T03:59:22;7.20;;;4.15;;
54937;SDS011;52756;52.826;6.214;2023-05-19T04:01:48;8.48;;;4.38;;
54937;SDS011;52756;52.826;6.214;2023-05-19T04:04:14;10.40;;;4.00;;
54937;SDS011;52756;52.826;6.214;2023-05-19T04:06:40;6.93;;;3.90;;
54937;SDS011;52756;52.826;6.214;2023-05-19T04:09:12;8.43;;;3.97;;
54937;SDS011;52756;52.826;6.214;2023-05-19T04:11:39;6.82;;;3.85;;
54937;SDS011;52756;52.826;6.214;2023-05-19T04:14:06;7.90;;;4.22;;
54937;SDS011;52756;52.826;6.214;2023-05-19T04:16:32;7.85;;;5.13;;
54937;SDS011;52756;52.826;6.214;2023-05-19T04:18:58;5.82;;;3.95;;
54937;SDS011;52756;52.826;6.214;2023-05-19T04:21:24;8.05;;;4.50;;
54937;SDS011;52756;52.826;6.214;2023-05-19T04:23:49;10.32;;;4.35;;
54937;SDS011;52756;52.826;6.214;2023-05-19T04:26:15;7.55;;;4.07;;
54937;SDS011;52756;52.826;6.214;2023-05-19T04:28:43;5.70;;;4.28;;
54937;SDS011;52756;52.826;6.214;2023-05-19T04:31:11;9.13;;;4.15;;
54937;SDS011;52756;52.826;6.214;2023-05-19T04:33:38;5.82;;;3.90;;
54937;SDS011;52756;52.826;6.214;2023-05-19T04:36:05;6.88;;;3.97;;
54937;SDS011;52756;52.826;6.214;2023-05-19T04:38:35;7.18;;;4.00;;
54937;SDS011;52756;52.826;6.214;2023-05-19T04:41:04;8.45;;;4.38;;
54937;SDS011;52756;52.826;6.214;2023-05-19T04:43:34;7.07;;;4.13;;
54937;SDS011;52756;52.826;6.214;2023-05-19T04:45:59;6.70;;;3.83;;
54937;SDS011;52756;52.826;6.214;2023-05-19T04:48:26;7.53;;;3.88;;
54937;SDS011;52756;52.826;6.214;2023-05-19T04:50:54;7.07;;;3.78;;
54937;SDS011;52756;52.826;6.214;2023-05-19T04:53:20;6.28;;;3.53;;
54937;SDS011;52756;52.826;6.214;2023-05-19T04:55:46;7.13;;;3.75;;
54937;SDS011;52756;52.826;6.214;2023-05-19T04:58:12;10.25;;;4.72;;
54937;SDS011;52756;52.826;6.214;2023-05-19T05:00:38;9.07;;;5.65;;
54937;SDS011;52756;52.826;6.214;2023-05-19T05:03:03;11.27;;;6.38;;
54937;SDS011;52756;52.826;6.214;2023-05-19T05:05:31;11.90;;;7.68;;
54937;SDS011;52756;52.826;6.214;2023-05-19T05:07:57;11.15;;;7.47;;
54937;SDS011;52756;52.826;6.214;2023-05-19T05:10:23;18.75;;;9.10;;
54937;SDS011;52756;52.826;6.214;2023-05-19T05:12:49;14.00;;;8.30;;
54937;SDS011;52756;52.826;6.214;2023-05-19T05:15:15;14.07;;;7.90;;
54937;SDS011;52756;52.826;6.214;2023-05-19T05:17:41;16.70;;;8.15;;
54937;SDS011;52756;52.826;6.214;2023-05-19T05:20:07;15.35;;;7.35;;
54937;SDS011;52756;52.826;6.214;2023-05-19T05:22:34;13.10;;;7.90;;
54937;SDS011;52756;52.826;6.214;2023-05-19T05:25:00;12.43;;;7.03;;
54937;SDS011;52756;52.826;6.214;2023-05-19T05:27:26;13.48;;;6.97;;
54937;SDS011;52756;52.826;6.214;2023-05-19T05:29:52;12.75;;;6.97;;
54937;SDS011;52756;52.826;6.214;2023-05-19T05:32:18;15.90;;;7.70;;
54937;SDS011;52756;52.826;6.214;2023-05-19T05:34:44;12.50;;;6.68;;
54937;SDS011;52756;52.826;6.214;2023-05-19T05:37:10;10.32;;;5.80;;
54937;SDS011;52756;52.826;6.214;2023-05-19T05:39:36;12.32;;;6.20;;
54937;SDS011;52756;52.826;6.214;2023-05-19T05:42:01;17.38;;;7.03;;
54937;SDS011;52756;52.826;6.214;2023-05-19T05:44:27;10.05;;;5.75;;
54937;SDS011;52756;52.826;6.214;2023-05-19T05:46:53;13.23;;;5.40;;
54937;SDS011;52756;52.826;6.214;2023-05-19T05:49:19;13.68;;;5.93;;
54937;SDS011;52756;52.826;6.214;2023-05-19T05:51:45;8.02;;;4.75;;
54937;SDS011;52756;52.826;6.214;2023-05-19T05:54:11;12.07;;;5.88;;
54937;SDS011;52756;52.826;6.214;2023-05-19T05:56:37;11.93;;;5.43;;
54937;SDS011;52756;52.826;6.214;2023-05-19T05:59:03;10.13;;;4.43;;
54937;SDS011;52756;52.826;6.214;2023-05-19T06:01:29;12.52;;;5.85;;
54937;SDS011;52756;52.826;6.214;2023-05-19T06:03:55;10.98;;;5.88;;
54937;SDS011;52756;52.826;6.214;2023-05-19T06:06:21;8.88;;;4.75;;
54937;SDS011;52756;52.826;6.214;2023-05-19T06:08:47;8.85;;;4.47;;
54937;SDS011;52756;52.826;6.214;2023-05-19T06:11:13;9.50;;;4.57;;
54937;SDS011;52756;52.826;6.214;2023-05-19T06:13:38;9.48;;;5.00;;
54937;SDS011;52756;52.826;6.214;2023-05-19T06:16:07;11.18;;;4.65;;
54937;SDS011;52756;52.826;6.214;2023-05-19T06:18:33;11.27;;;4.85;;
54937;SDS011;52756;52.826;6.214;2023-05-19T06:20:59;10.57;;;5.18;;
54937;SDS011;52756;52.826;6.214;2023-05-19T06:23:25;8.27;;;4.10;;
54937;SDS011;52756;52.826;6.214;2023-05-19T06:25:53;8.32;;;4.00;;
54937;SDS011;52756;52.826;6.214;2023-05-19T06:28:19;9.55;;;4.05;;
54937;SDS011;52756;52.826;6.214;2023-05-19T06:30:44;11.23;;;4.35;;
54937;SDS011;52756;52.826;6.214;2023-05-19T06:33:10;9.35;;;4.00;;
54937;SDS011;52756;52.826;6.214;2023-05-19T06:35:36;7.90;;;4.13;;
54937;SDS011;52756;52.826;6.214;2023-05-19T06:38:02;9.82;;;4.10;;
54937;SDS011;52756;52.826;6.214;2023-05-19T06:40:27;8.65;;;4.55;;
54937;SDS011;52756;52.826;6.214;2023-05-19T06:42:53;9.10;;;3.70;;
54937;SDS011;52756;52.826;6.214;2023-05-19T06:45:19;6.57;;;3.53;;
54937;SDS011;52756;52.826;6.214;2023-05-19T06:47:46;10.18;;;3.65;;
54937;SDS011;52756;52.826;6.214;2023-05-19T06:50:12;8.82;;;3.63;;
54937;SDS011;52756;52.826;6.214;2023-05-19T06:52:38;8.07;;;3.10;;
54937;SDS011;52756;52.826;6.214;2023-05-19T06:55:05;8.45;;;4.03;;
54937;SDS011;52756;52.826;6.214;2023-05-19T06:57:31;7.90;;;3.83;;
54937;SDS011;52756;52.826;6.214;2023-05-19T06:59:56;11.90;;;3.55;;
54937;SDS011;52756;52.826;6.214;2023-05-19T07:02:22;8.45;;;3.60;;
54937;SDS011;52756;52.826;6.214;2023-05-19T07:04:48;8.57;;;3.72;;
54937;SDS011;52756;52.826;6.214;2023-05-19T07:07:15;10.15;;;3.97;;
54937;SDS011;52756;52.826;6.214;2023-05-19T07:09:40;6.07;;;2.88;;
54937;SDS011;52756;52.826;6.214;2023-05-19T07:12:06;10.95;;;3.75;;
54937;SDS011;52756;52.826;6.214;2023-05-19T07:14:32;7.35;;;3.50;;
54937;SDS011;52756;52.826;6.214;2023-05-19T07:16:57;8.60;;;3.60;;
54937;SDS011;52756;52.826;6.214;2023-05-19T07:19:23;6.97;;;3.35;;
54937;SDS011;52756;52.826;6.214;2023-05-19T07:21:49;10.20;;;3.20;;
54937;SDS011;52756;52.826;6.214;2023-05-19T07:24:15;7.28;;;3.03;;
54937;SDS011;52756;52.826;6.214;2023-05-19T07:26:40;6.82;;;2.83;;
54937;SDS011;52756;52.826;6.214;2023-05-19T07:29:06;6.40;;;2.90;;
54937;SDS011;52756;52.826;6.214;2023-05-19T07:31:32;8.25;;;2.60;;
54937;SDS011;52756;52.826;6.214;2023-05-19T07:33:58;9.35;;;3.17;;
54937;SDS011;52756;52.826;6.214;2023-05-19T07:36:24;10.30;;;3.00;;
54937;SDS011;52756;52.826;6.214;2023-05-19T07:38:51;9.20;;;3.03;;
54937;SDS011;52756;52.826;6.214;2023-05-19T07:41:16;8.95;;;2.70;;
54937;SDS011;52756;52.826;6.214;2023-05-19T07:43:42;5.88;;;2.90;;
54937;SDS011;52756;52.826;6.214;2023-05-19T07:46:08;9.88;;;2.50;;
54937;SDS011;52756;52.826;6.214;2023-05-19T07:48:33;7.03;;;2.90;;
54937;SDS011;52756;52.826;6.214;2023-05-19T07:50:59;7.63;;;2.35;;
54937;SDS011;52756;52.826;6.214;2023-05-19T07:53:26;7.70;;;2.78;;
54937;SDS011;52756;52.826;6.214;2023-05-19T07:55:52;8.85;;;2.78;;
54937;SDS011;52756;52.826;6.214;2023-05-19T07:58:17;9.73;;;2.95;;
54937;SDS011;52756;52.826;6.214;2023-05-19T08:00:43;10.15;;;3.00;;
54937;SDS011;52756;52.826;6.214;2023-05-19T08:03:10;6.40;;;2.70;;
54937;SDS011;52756;52.826;6.214;2023-05-19T08:05:36;5.45;;;2.60;;
54937;SDS011;52756;52.826;6.214;2023-05-19T08:08:02;10.10;;;3.00;;
54937;SDS011;52756;52.826;6.214;2023-05-19T08:10:28;7.68;;;2.58;;
54937;SDS011;52756;52.826;6.214;2023-05-19T08:12:53;9.35;;;3.03;;
54937;SDS011;52756;52.826;6.214;2023-05-19T08:15:19;7.60;;;2.75;;
54937;SDS011;52756;52.826;6.214;2023-05-19T08:17:45;9.75;;;2.78;;
54937;SDS011;52756;52.826;6.214;2023-05-19T08:20:11;6.82;;;2.35;;
54937;SDS011;52756;52.826;6.214;2023-05-19T08:22:37;8.68;;;2.75;;
54937;SDS011;52756;52.826;6.214;2023-05-19T08:25:03;6.50;;;2.85;;
54937;SDS011;52756;52.826;6.214;2023-05-19T08:27:30;6.65;;;2.40;;
54937;SDS011;52756;52.826;6.214;2023-05-19T08:29:56;13.93;;;4.03;;
54937;SDS011;52756;52.826;6.214;2023-05-19T08:32:22;6.45;;;2.67;;
54937;SDS011;52756;52.826;6.214;2023-05-19T08:34:48;5.88;;;2.30;;
54937;SDS011;52756;52.826;6.214;2023-05-19T08:37:14;7.93;;;2.60;;
54937;SDS011;52756;52.826;6.214;2023-05-19T08:39:39;8.30;;;2.85;;
54937;SDS011;52756;52.826;6.214;2023-05-19T08:42:05;7.43;;;2.65;;
54937;SDS011;52756;52.826;6.214;2023-05-19T08:44:36;7.97;;;2.78;;
54937;SDS011;52756;52.826;6.214;2023-05-19T08:47:03;6.93;;;2.72;;
54937;SDS011;52756;52.826;6.214;2023-05-19T08:49:31;7.68;;;2.60;;
54937;SDS011;52756;52.826;6.214;2023-05-19T08:52:10;8.40;;;2.92;;
54937;SDS011;52756;52.826;6.214;2023-05-19T08:54:58;7.05;;;2.47;;
54937;SDS011;52756;52.826;6.214;2023-05-19T08:57:27;8.18;;;2.30;;
54937;SDS011;52756;52.826;6.214;2023-05-19T08:59:53;6.93;;;2.83;;
54937;SDS011;52756;52.826;6.214;2023-05-19T09:02:19;6.75;;;2.70;;
54937;SDS011;52756;52.826;6.214;2023-05-19T09:04:46;13.15;;;3.33;;
54937;SDS011;52756;52.826;6.214;2023-05-19T09:07:15;7.43;;;2.45;;
54937;SDS011;52756;52.826;6.214;2023-05-19T09:09:43;4.32;;;1.98;;
54937;SDS011;52756;52.826;6.214;2023-05-19T09:12:12;6.38;;;2.85;;
54937;SDS011;52756;52.826;6.214;2023-05-19T09:14:38;6.53;;;2.58;;
54937;SDS011;52756;52.826;6.214;2023-05-19T09:17:04;7.43;;;2.42;;
54937;SDS011;52756;52.826;6.214;2023-05-19T09:19:30;7.03;;;3.00;;
54937;SDS011;52756;52.826;6.214;2023-05-19T09:21:56;7.03;;;2.63;;
54937;SDS011;52756;52.826;6.214;2023-05-19T09:24:29;8.98;;;2.83;;
54937;SDS011;52756;52.826;6.214;2023-05-19T09:26:55;6.47;;;2.42;;
54937;SDS011;52756;52.826;6.214;2023-05-19T09:29:21;7.00;;;2.55;;
54937;SDS011;52756;52.826;6.214;2023-05-19T09:31:48;6.05;;;2.28;;
54937;SDS011;52756;52.826;6.214;2023-05-19T09:34:15;5.15;;;2.15;;
54937;SDS011;52756;52.826;6.214;2023-05-19T09:36:40;7.32;;;2.28;;
54937;SDS011;52756;52.826;6.214;2023-05-19T09:39:13;5.55;;;2.13;;
54937;SDS011;52756;52.826;6.214;2023-05-19T09:41:40;6.95;;;2.28;;
54937;SDS011;52756;52.826;6.214;2023-05-19T09:44:06;7.45;;;2.58;;
54937;SDS011;52756;52.826;6.214;2023-05-19T09:46:36;5.90;;;2.53;;
54937;SDS011;52756;52.826;6.214;2023-05-19T09:49:08;7.80;;;2.78;;
54937;SDS011;52756;52.826;6.214;2023-05-19T09:51:39;5.72;;;2.50;;
54937;SDS011;52756;52.826;6.214;2023-05-19T09:54:06;7.40;;;2.78;;
54937;SDS011;52756;52.826;6.214;2023-05-19T09:56:34;7.68;;;2.45;;
54937;SDS011;52756;52.826;6.214;2023-05-19T09:59:00;6.15;;;2.45;;
54937;SDS011;52756;52.826;6.214;2023-05-19T10:01:28;8.57;;;2.83;;
54937;SDS011;52756;52.826;6.214;2023-05-19T10:03:57;10.02;;;2.75;;
54937;SDS011;52756;52.826;6.214;2023-05-19T10:06:24;6.28;;;2.70;;
54937;SDS011;52756;52.826;6.214;2023-05-19T10:08:51;8.00;;;2.47;;
54937;SDS011;52756;52.826;6.214;2023-05-19T10:11:17;6.35;;;1.92;;
54937;SDS011;52756;52.826;6.214;2023-05-19T10:13:44;5.47;;;2.10;;
54937;SDS011;52756;52.826;6.214;2023-05-19T10:16:11;5.72;;;2.33;;
54937;SDS011;52756;52.826;6.214;2023-05-19T10:18:40;8.13;;;2.40;;
54937;SDS011;52756;52.826;6.214;2023-05-19T10:21:07;5.10;;;2.15;;
54937;SDS011;52756;52.826;6.214;2023-05-19T10:23:33;6.22;;;1.92;;
54937;SDS011;52756;52.826;6.214;2023-05-19T10:25:59;8.23;;;2.90;;
54937;SDS011;52756;52.826;6.214;2023-05-19T10:28:36;4.90;;;2.22;;
54937;SDS011;52756;52.826;6.214;2023-05-19T10:31:05;4.75;;;1.90;;
54937;SDS011;52756;52.826;6.214;2023-05-19T10:36:32;8.75;;;2.58;;
54937;SDS011;52756;52.826;6.214;2023-05-19T10:39:23;6.30;;;2.38;;
54937;SDS011;52756;52.826;6.214;2023-05-19T10:47:10;6.30;;;2.20;;
54937;SDS011;52756;52.826;6.214;2023-05-19T10:49:36;5.32;;;2.10;;
54937;SDS011;52756;52.826;6.214;2023-05-19T10:52:03;3.97;;;1.85;;
54937;SDS011;52756;52.826;6.214;2023-05-19T10:54:44;5.28;;;1.98;;
54937;SDS011;52756;52.826;6.214;2023-05-19T10:57:15;4.97;;;2.10;;
54937;SDS011;52756;52.826;6.214;2023-05-19T10:59:42;6.53;;;2.50;;
54937;SDS011;52756;52.826;6.214;2023-05-19T11:02:56;5.88;;;2.00;;
54937;SDS011;52756;52.826;6.214;2023-05-19T11:05:15;5.90;;;1.85;;
54937;SDS011;52756;52.826;6.214;2023-05-19T11:07:53;7.22;;;2.42;;
54937;SDS011;52756;52.826;6.214;2023-05-19T11:10:23;4.90;;;1.92;;
54937;SDS011;52756;52.826;6.214;2023-05-19T11:12:49;8.55;;;2.55;;
54937;SDS011;52756;52.826;6.214;2023-05-19T11:15:16;6.38;;;2.35;;
54937;SDS011;52756;52.826;6.214;2023-05-19T11:17:44;4.78;;;2.40;;
54937;SDS011;52756;52.826;6.214;2023-05-19T11:25:41;5.95;;;2.10;;
54937;SDS011;52756;52.826;6.214;2023-05-19T11:28:18;7.70;;;2.13;;
54937;SDS011;52756;52.826;6.214;2023-05-19T11:30:50;5.38;;;1.80;;
54937;SDS011;52756;52.826;6.214;2023-05-19T11:33:18;5.85;;;1.95;;
54937;SDS011;52756;52.826;6.214;2023-05-19T11:35:49;7.18;;;2.33;;
54937;SDS011;52756;52.826;6.214;2023-05-19T11:38:18;4.78;;;1.95;;
54937;SDS011;52756;52.826;6.214;2023-05-19T11:40:46;5.70;;;2.10;;
54937;SDS011;52756;52.826;6.214;2023-05-19T11:43:13;6.22;;;2.15;;
54937;SDS011;52756;52.826;6.214;2023-05-19T11:45:40;7.00;;;2.22;;
54937;SDS011;52756;52.826;6.214;2023-05-19T11:48:09;4.63;;;2.10;;
54937;SDS011;52756;52.826;6.214;2023-05-19T11:50:40;6.80;;;2.13;;
54937;SDS011;52756;52.826;6.214;2023-05-19T11:53:07;5.75;;;2.10;;
54937;SDS011;52756;52.826;6.214;2023-05-19T11:55:41;5.87;;;2.20;;
54937;SDS011;52756;52.826;6.214;2023-05-19T11:58:09;7.60;;;1.98;;
54937;SDS011;52756;52.826;6.214;2023-05-19T12:00:38;5.35;;;2.00;;
54937;SDS011;52756;52.826;6.214;2023-05-19T12:03:05;5.90;;;1.90;;
54937;SDS011;52756;52.826;6.214;2023-05-19T12:05:31;7.75;;;2.05;;
54937;SDS011;52756;52.826;6.214;2023-05-19T12:08:00;4.70;;;1.90;;
54937;SDS011;52756;52.826;6.214;2023-05-19T12:10:27;4.88;;;2.17;;
54937;SDS011;52756;52.826;6.214;2023-05-19T12:12:55;9.15;;;2.90;;
54937;SDS011;52756;52.826;6.214;2023-05-19T12:15:21;8.48;;;2.03;;
54937;SDS011;52756;52.826;6.214;2023-05-19T12:17:49;6.00;;;2.20;;
54937;SDS011;52756;52.826;6.214;2023-05-19T12:20:23;6.57;;;2.10;;
54937;SDS011;52756;52.826;6.214;2023-05-19T12:22:49;7.82;;;2.25;;
54937;SDS011;52756;52.826;6.214;2023-05-19T12:25:16;8.40;;;2.05;;
54937;SDS011;52756;52.826;6.214;2023-05-19T12:27:42;6.18;;;2.03;;
54937;SDS011;52756;52.826;6.214;2023-05-19T12:30:09;6.78;;;2.08;;
54937;SDS011;52756;52.826;6.214;2023-05-19T12:32:36;5.68;;;2.30;;
54937;SDS011;52756;52.826;6.214;2023-05-19T12:35:03;6.07;;;2.55;;
54937;SDS011;52756;52.826;6.214;2023-05-19T12:37:30;6.13;;;2.13;;
54937;SDS011;52756;52.826;6.214;2023-05-19T12:39:57;7.70;;;2.40;;
54937;SDS011;52756;52.826;6.214;2023-05-19T12:42:27;8.05;;;2.72;;
54937;SDS011;52756;52.826;6.214;2023-05-19T12:45:00;5.82;;;1.90;;
54937;SDS011;52756;52.826;6.214;2023-05-19T12:47:30;7.57;;;2.20;;
54937;SDS011;52756;52.826;6.214;2023-05-19T12:50:03;7.75;;;2.17;;
54937;SDS011;52756;52.826;6.214;2023-05-19T12:52:30;5.03;;;2.33;;
54937;SDS011;52756;52.826;6.214;2023-05-19T12:55:05;5.07;;;2.33;;
54937;SDS011;52756;52.826;6.214;2023-05-19T13:00:29;7.90;;;2.17;;
54937;SDS011;52756;52.826;6.214;2023-05-19T13:03:03;4.47;;;1.77;;
54937;SDS011;52756;52.826;6.214;2023-05-19T13:05:31;7.40;;;2.30;;
54937;SDS011;52756;52.826;6.214;2023-05-19T13:07:59;6.78;;;1.85;;
54937;SDS011;52756;52.826;6.214;2023-05-19T13:10:26;6.40;;;1.90;;
54937;SDS011;52756;52.826;6.214;2023-05-19T13:12:56;5.60;;;2.13;;
54937;SDS011;52756;52.826;6.214;2023-05-19T13:15:24;5.20;;;2.00;;
54937;SDS011;52756;52.826;6.214;2023-05-19T13:17:52;3.60;;;2.08;;
54937;SDS011;52756;52.826;6.214;2023-05-19T13:20:18;5.55;;;2.10;;
54937;SDS011;52756;52.826;6.214;2023-05-19T13:22:45;10.50;;;2.15;;
54937;SDS011;52756;52.826;6.214;2023-05-19T13:25:14;7.65;;;2.53;;
54937;SDS011;52756;52.826;6.214;2023-05-19T13:27:41;6.25;;;1.92;;
54937;SDS011;52756;52.826;6.214;2023-05-19T13:30:09;6.22;;;2.17;;
54937;SDS011;52756;52.826;6.214;2023-05-19T13:32:36;6.00;;;3.17;;
54937;SDS011;52756;52.826;6.214;2023-05-19T13:35:01;5.75;;;2.40;;
54937;SDS011;52756;52.826;6.214;2023-05-19T13:37:27;4.90;;;2.20;;
54937;SDS011;52756;52.826;6.214;2023-05-19T13:39:53;8.25;;;2.72;;
54937;SDS011;52756;52.826;6.214;2023-05-19T13:42:19;5.40;;;1.90;;
54937;SDS011;52756;52.826;6.214;2023-05-19T13:44:45;8.50;;;2.42;;
54937;SDS011;52756;52.826;6.214;2023-05-19T13:47:11;5.10;;;1.65;;
54937;SDS011;52756;52.826;6.214;2023-05-19T13:49:37;5.88;;;2.08;;
54937;SDS011;52756;52.826;6.214;2023-05-19T13:52:03;5.50;;;2.10;;
54937;SDS011;52756;52.826;6.214;2023-05-19T13:54:30;6.57;;;2.45;;
54937;SDS011;52756;52.826;6.214;2023-05-19T13:56:56;5.65;;;1.80;;
54937;SDS011;52756;52.826;6.214;2023-05-19T13:59:22;7.38;;;2.58;;
54937;SDS011;52756;52.826;6.214;2023-05-19T14:01:49;5.40;;;1.92;;
54937;SDS011;52756;52.826;6.214;2023-05-19T14:04:16;5.45;;;2.50;;
54937;SDS011;52756;52.826;6.214;2023-05-19T14:06:42;5.97;;;2.92;;
54937;SDS011;52756;52.826;6.214;2023-05-19T14:09:08;5.43;;;2.25;;
54937;SDS011;52756;52.826;6.214;2023-05-19T14:11:34;5.45;;;2.42;;
54937;SDS011;52756;52.826;6.214;2023-05-19T14:14:00;6.60;;;2.47;;
54937;SDS011;52756;52.826;6.214;2023-05-19T14:16:27;6.05;;;2.13;;
54937;SDS011;52756;52.826;6.214;2023-05-19T14:18:54;7.00;;;2.50;;
54937;SDS011;52756;52.826;6.214;2023-05-19T14:21:20;3.47;;;1.70;;
54937;SDS011;52756;52.826;6.214;2023-05-19T14:23:46;5.68;;;2.00;;
54937;SDS011;52756;52.826;6.214;2023-05-19T14:26:12;4.75;;;2.42;;
54937;SDS011;52756;52.826;6.214;2023-05-19T14:28:38;7.10;;;1.95;;
54937;SDS011;52756;52.826;6.214;2023-05-19T14:31:03;7.82;;;2.53;;
54937;SDS011;52756;52.826;6.214;2023-05-19T14:33:30;5.43;;;2.20;;
54937;SDS011;52756;52.826;6.214;2023-05-19T14:35:55;4.55;;;1.98;;
54937;SDS011;52756;52.826;6.214;2023-05-19T14:38:24;5.53;;;1.63;;
54937;SDS011;52756;52.826;6.214;2023-05-19T14:40:50;4.63;;;2.22;;
54937;SDS011;52756;52.826;6.214;2023-05-19T14:43:16;7.32;;;2.60;;
54937;SDS011;52756;52.826;6.214;2023-05-19T14:45:41;7.68;;;1.90;;
54937;SDS011;52756;52.826;6.214;2023-05-19T14:48:08;8.02;;;2.15;;
54937;SDS011;52756;52.826;6.214;2023-05-19T14:50:36;5.40;;;2.22;;
54937;SDS011;52756;52.826;6.214;2023-05-19T14:53:02;5.85;;;2.47;;
54937;SDS011;52756;52.826;6.214;2023-05-19T14:55:28;6.07;;;2.25;;
54937;SDS011;52756;52.826;6.214;2023-05-19T14:57:53;4.63;;;1.80;;
54937;SDS011;52756;52.826;6.214;2023-05-19T15:00:19;6.32;;;2.47;;
54937;SDS011;52756;52.826;6.214;2023-05-19T15:02:45;5.28;;;2.25;;
54937;SDS011;52756;52.826;6.214;2023-05-19T15:05:11;5.22;;;2.15;;
54937;SDS011;52756;52.826;6.214;2023-05-19T15:07:37;7.13;;;1.90;;
54937;SDS011;52756;52.826;6.214;2023-05-19T15:10:03;6.47;;;2.28;;
54937;SDS011;52756;52.826;6.214;2023-05-19T15:12:29;4.68;;;2.00;;
54937;SDS011;52756;52.826;6.214;2023-05-19T15:14:55;6.70;;;2.15;;
54937;SDS011;52756;52.826;6.214;2023-05-19T15:17:20;7.90;;;2.65;;
54937;SDS011;52756;52.826;6.214;2023-05-19T15:19:46;6.60;;;2.10;;
54937;SDS011;52756;52.826;6.214;2023-05-19T15:22:12;6.15;;;2.28;;